Time;durP1;ratioP1;P1;durP2;ratioP2;P2;SDS_P1;SDS_P2;PMS_P1;PMS_P2;Temp;Humidity;BMP_temperature;BMP_pressure;BME280_temperature;BME280_humidity;BME280_pressure;Samples;Min_cycle;Max_cycle;Signal;HPM_P1;HPM_P2
2022/10/03 00:02:30;;;;;;;8.23;3.47;;;;;;;10.03;100.00;102492.09;2615454;36;20038;-55
2022/10/03 00:05:21;;;;;;;11.18;3.35;;;;;;;9.94;100.00;102489.97;2615559;47;20563;-56
2022/10/03 00:08:09;;;;;;;10.65;2.80;;;;;;;9.95;100.00;102491.69;2615242;36;20026;-55
2022/10/03 00:10:54;;;;;;;7.32;3.03;;;;;;;9.98;100.00;102495.06;2615381;36;20166;-55
2022/10/03 00:13:32;;;;;;;9.77;2.67;;;;;;;9.84;100.00;102499.56;2616011;31;20033;-56
2022/10/03 00:16:15;;;;;;;8.43;3.35;;;;;;;9.82;100.00;102499.66;2612058;36;20045;-56
2022/10/03 00:18:57;;;;;;;6.88;2.70;;;;;;;9.85;100.00;102504.84;2615605;36;20039;-56
2022/10/03 00:21:45;;;;;;;6.15;2.67;;;;;;;9.86;100.00;102503.00;2615029;36;20057;-56
2022/10/03 00:24:25;;;;;;;8.25;2.95;;;;;;;9.74;100.00;102505.44;2614855;36;20039;-53
2022/10/03 00:27:00;;;;;;;9.63;3.20;;;;;;;9.70;100.00;102506.63;2615561;36;20038;-57
2022/10/03 00:29:52;;;;;;;11.80;3.35;;;;;;;9.73;100.00;102508.22;2613796;36;20042;-55
2022/10/03 00:32:43;;;;;;;15.77;3.30;;;;;;;9.71;100.00;102516.38;2613504;31;20056;-55
2022/10/03 00:35:38;;;;;;;7.05;3.03;;;;;;;9.70;100.00;102514.69;2615689;36;20034;-56
2022/10/03 00:38:30;;;;;;;7.07;3.00;;;;;;;9.69;100.00;102523.69;2615992;36;20057;-57
2022/10/03 00:41:14;;;;;;;8.40;3.08;;;;;;;9.70;100.00;102519.16;2614683;36;20570;-54
2022/10/03 00:44:12;;;;;;;8.80;3.50;;;;;;;9.66;100.00;102521.19;2614305;36;20034;-58
2022/10/03 00:47:03;;;;;;;11.63;3.83;;;;;;;9.68;100.00;102527.31;2614929;32;20565;-57
2022/10/03 00:49:58;;;;;;;9.48;3.22;;;;;;;9.56;100.00;102512.78;2614940;36;20069;-56
2022/10/03 00:52:43;;;;;;;8.60;3.47;;;;;;;9.56;100.00;102520.84;2615959;31;20424;-56
2022/10/03 00:55:23;;;;;;;5.72;3.50;;;;;;;9.58;100.00;102520.75;2614835;36;20130;-58
2022/10/03 00:58:05;;;;;;;7.75;2.83;;;;;;;9.55;100.00;102524.47;2614917;36;20790;-55
2022/10/03 01:00:35;;;;;;;7.18;2.92;;;;;;;9.57;100.00;102527.06;2613133;36;20031;-56
2022/10/03 01:03:28;;;;;;;5.88;3.45;;;;;;;9.55;100.00;102537.06;2614893;36;20035;-54
2022/10/03 01:06:14;;;;;;;6.35;3.38;;;;;;;9.53;100.00;102534.47;2615553;36;20037;-58
2022/10/03 01:09:18;;;;;;;7.55;3.30;;;;;;;9.54;100.00;102536.19;2614503;36;20033;-53
2022/10/03 01:12:04;;;;;;;6.07;3.10;;;;;;;9.54;100.00;102543.38;2615183;36;20045;-58
2022/10/03 01:14:53;;;;;;;9.55;3.85;;;;;;;9.51;100.00;102547.13;2615095;36;20034;-54
2022/10/03 01:17:33;;;;;;;7.22;3.88;;;;;;;9.50;100.00;102537.31;2615537;36;20575;-56
2022/10/03 01:20:25;;;;;;;6.40;3.22;;;;;;;9.48;100.00;102547.28;2614422;36;20034;-54
2022/10/03 01:23:27;;;;;;;8.90;3.03;;;;;;;9.44;100.00;102551.97;2616101;36;20038;-55
2022/10/03 01:26:04;;;;;;;7.35;3.25;;;;;;;9.47;100.00;102559.84;2615333;36;20038;-56
2022/10/03 01:31:39;;;;;;;8.27;3.50;;;;;;;9.36;100.00;102553.38;2616096;36;20027;-57
2022/10/03 01:34:16;;;;;;;6.78;2.83;;;;;;;9.27;100.00;102555.59;2615242;36;20022;-55
2022/10/03 01:36:55;;;;;;;7.78;3.25;;;;;;;9.25;100.00;102557.53;2614233;31;20034;-54
2022/10/03 01:39:29;;;;;;;14.15;3.40;;;;;;;9.27;100.00;102557.44;2616367;36;20432;-55
2022/10/03 01:42:03;;;;;;;5.25;2.90;;;;;;;9.31;100.00;102561.69;2615271;36;20030;-56
2022/10/03 01:44:52;;;;;;;7.63;2.63;;;;;;;9.24;100.00;102553.09;2614722;36;20052;-56
2022/10/03 01:47:29;;;;;;;6.05;3.25;;;;;;;9.20;100.00;102569.47;2614915;36;20022;-57
2022/10/03 01:50:03;;;;;;;9.02;3.10;;;;;;;9.15;100.00;102576.94;2615953;36;20039;-53
2022/10/03 01:52:41;;;;;;;7.20;3.45;;;;;;;9.16;100.00;102567.91;2613604;36;20031;-51
2022/10/03 01:55:22;;;;;;;6.70;3.20;;;;;;;9.21;100.00;102564.00;2614781;36;20065;-54
2022/10/03 01:57:59;;;;;;;9.27;3.33;;;;;;;9.32;100.00;102560.75;2614621;36;20049;-56
2022/10/03 02:00:37;;;;;;;7.50;3.25;;;;;;;9.26;100.00;102561.06;2611372;31;20042;-56
2022/10/03 02:03:12;;;;;;;8.05;3.10;;;;;;;9.29;100.00;102563.59;2614686;31;20034;-55
2022/10/03 02:05:50;;;;;;;8.27;2.88;;;;;;;9.28;100.00;102568.09;2615249;36;20061;-53
2022/10/03 02:08:32;;;;;;;6.03;2.97;;;;;;;9.25;100.00;102567.41;2613572;36;20050;-53
2022/10/03 02:11:07;;;;;;;8.18;2.78;;;;;;;9.21;100.00;102566.69;2615451;36;20023;-55
2022/10/03 02:13:46;;;;;;;7.57;3.10;;;;;;;9.23;100.00;102577.34;2614798;36;20122;-55
2022/10/03 02:16:29;;;;;;;10.07;2.92;;;;;;;9.22;100.00;102572.94;2614561;36;20589;-56
2022/10/03 02:19:04;;;;;;;8.27;3.15;;;;;;;9.19;100.00;102573.13;2615658;36;20412;-58
2022/10/03 02:21:35;;;;;;;6.35;3.13;;;;;;;9.14;100.00;102572.50;2615886;36;20030;-56
2022/10/03 02:24:31;;;;;;;5.88;2.88;;;;;;;9.04;100.00;102575.69;2615311;31;20022;-51
2022/10/03 02:27:38;;;;;;;8.27;2.67;;;;;;;9.02;100.00;102566.84;2615704;36;20038;-56
2022/10/03 02:30:18;;;;;;;6.35;2.80;;;;;;;8.94;100.00;102571.78;2615136;36;20035;-56
2022/10/03 02:33:38;;;;;;;5.78;2.75;;;;;;;8.97;100.00;102568.91;2616194;36;20546;-54
2022/10/03 02:36:39;;;;;;;4.07;2.70;;;;;;;8.93;100.00;102578.94;2616396;31;20413;-55
2022/10/03 02:39:37;;;;;;;5.78;2.78;;;;;;;8.93;100.00;102573.56;2614627;36;20211;-52
2022/10/03 02:42:40;;;;;;;5.78;2.65;;;;;;;8.94;100.00;102577.16;2615105;36;20114;-53
2022/10/03 02:45:42;;;;;;;6.28;3.22;;;;;;;8.94;100.00;102569.09;2615644;31;20034;-55
2022/10/03 02:48:54;;;;;;;7.18;3.28;;;;;;;8.97;100.00;102568.06;2614808;36;20042;-55
2022/10/03 02:52:07;;;;;;;8.32;3.33;;;;;;;8.97;100.00;102573.44;2613280;36;20027;-52
2022/10/03 02:55:08;;;;;;;7.57;3.08;;;;;;;8.88;100.00;102569.44;2613250;36;20046;-54
2022/10/03 02:58:13;;;;;;;6.60;3.30;;;;;;;8.86;100.00;102571.31;2615634;31;20034;-56
2022/10/03 03:01:24;;;;;;;5.40;2.95;;;;;;;8.80;100.00;102577.03;2614741;36;20026;-55
2022/10/03 03:04:14;;;;;;;7.68;2.90;;;;;;;8.77;100.00;102578.03;2616089;36;20027;-57
2022/10/03 03:07:25;;;;;;;8.88;2.72;;;;;;;8.76;100.00;102577.19;2615802;36;20502;-55
2022/10/03 03:10:44;;;;;;;10.93;3.00;;;;;;;8.74;100.00;102581.75;2614160;31;20022;-55
2022/10/03 03:13:57;;;;;;;7.15;2.90;;;;;;;8.72;100.00;102588.19;2615538;36;20591;-52
2022/10/03 03:16:51;;;;;;;7.13;3.45;;;;;;;8.74;100.00;102597.84;2615416;36;20034;-54
2022/10/03 03:19:41;;;;;;;3.65;2.50;;;;;;;8.77;100.00;102596.84;2614940;36;20042;-56
2022/10/03 03:22:27;;;;;;;8.43;4.82;;;;;;;8.85;100.00;102599.09;2615608;36;20026;-54
2022/10/03 03:25:12;;;;;;;5.25;3.17;;;;;;;8.84;100.00;102600.94;2615234;36;20023;-55
2022/10/03 03:27:57;;;;;;;5.97;3.33;;;;;;;8.79;100.00;102602.13;2614996;36;20042;-56
2022/10/03 03:30:32;;;;;;;7.60;2.95;;;;;;;8.65;100.00;102606.41;2614901;36;20045;-52
2022/10/03 03:33:11;;;;;;;8.75;3.08;;;;;;;8.65;100.00;102601.03;2615084;36;20057;-57
2022/10/03 03:35:54;;;;;;;8.80;3.47;;;;;;;8.62;100.00;102601.19;2615618;36;20039;-52
2022/10/03 03:38:33;;;;;;;8.32;3.30;;;;;;;8.71;100.00;102603.41;2614834;36;20034;-56
2022/10/03 03:41:22;;;;;;;7.38;3.05;;;;;;;8.73;100.00;102606.88;2616039;36;20030;-57
2022/10/03 03:44:23;;;;;;;7.65;3.75;;;;;;;8.73;100.00;102598.84;2615270;36;20034;-54
2022/10/03 03:47:06;;;;;;;8.25;3.10;;;;;;;8.71;100.00;102595.34;2614628;36;20096;-59
2022/10/03 03:49:52;;;;;;;6.70;3.33;;;;;;;8.65;100.00;102606.41;2615642;36;20427;-56
2022/10/03 03:52:38;;;;;;;7.40;3.38;;;;;;;8.64;100.00;102601.97;2615793;36;20556;-57
2022/10/03 03:55:35;;;;;;;8.25;4.10;;;;;;;8.71;100.00;102606.06;2614176;36;20053;-54
2022/10/03 03:58:24;;;;;;;10.05;4.03;;;;;;;8.68;100.00;102602.69;2615618;36;20034;-56
2022/10/03 04:01:22;;;;;;;8.20;4.25;;;;;;;8.62;100.00;102595.84;2614668;36;20138;-53
2022/10/03 04:04:03;;;;;;;9.35;3.92;;;;;;;8.63;100.00;102594.91;2614944;36;20035;-55
2022/10/03 04:06:46;;;;;;;11.90;4.97;;;;;;;8.59;100.00;102602.22;2615084;36;20114;-57
2022/10/03 04:09:56;;;;;;;8.52;3.42;;;;;;;8.57;100.00;102600.59;2615371;36;20547;-56
2022/10/03 04:12:44;;;;;;;7.47;3.45;;;;;;;8.62;100.00;102600.34;2615150;36;20038;-55
2022/10/03 04:15:32;;;;;;;6.63;3.30;;;;;;;8.59;100.00;102596.00;2614711;31;20037;-53
2022/10/03 04:21:14;;;;;;;7.53;3.47;;;;;;;8.49;100.00;102600.97;2615175;36;20081;-52
2022/10/03 04:23:58;;;;;;;8.55;3.80;;;;;;;8.52;100.00;102591.91;2613761;36;20038;-55
2022/10/03 04:26:42;;;;;;;9.50;4.30;;;;;;;8.49;100.00;102600.09;2616488;31;20423;-54
2022/10/03 04:29:46;;;;;;;8.05;3.80;;;;;;;8.50;100.00;102596.50;2615481;31;20073;-56
2022/10/03 04:32:36;;;;;;;7.57;3.40;;;;;;;8.44;100.00;102602.16;2614429;36;20050;-55
2022/10/03 04:35:26;;;;;;;6.68;3.63;;;;;;;8.36;100.00;102598.03;2614591;36;20117;-51
2022/10/03 04:38:10;;;;;;;8.07;3.58;;;;;;;8.33;100.00;102600.88;2615948;36;20100;-53
2022/10/03 04:40:47;;;;;;;8.40;3.00;;;;;;;8.37;100.00;102602.44;2616123;31;20504;-53
2022/10/03 04:43:21;;;;;;;6.38;3.05;;;;;;;8.36;100.00;102600.72;2615098;36;20030;-53
2022/10/03 04:46:16;;;;;;;12.05;3.75;;;;;;;8.35;100.00;102604.34;2615107;36;20531;-55
2022/10/03 04:48:53;;;;;;;7.28;3.05;;;;;;;8.36;100.00;102614.13;2616801;36;20435;-55
2022/10/03 04:51:34;;;;;;;10.52;3.60;;;;;;;8.39;100.00;102622.03;2614837;36;20586;-53
2022/10/03 04:54:15;;;;;;;9.80;3.15;;;;;;;8.41;100.00;102619.25;2614840;36;20038;-55
2022/10/03 04:56:54;;;;;;;7.95;3.30;;;;;;;8.46;100.00;102627.09;2616384;31;20690;-51
2022/10/03 04:59:47;;;;;;;7.15;3.35;;;;;;;8.47;100.00;102628.84;2614279;36;20539;-52
2022/10/03 05:02:32;;;;;;;9.45;3.42;;;;;;;8.41;100.00;102620.13;2612480;36;20045;-55
2022/10/03 05:05:14;;;;;;;6.30;3.45;;;;;;;8.57;100.00;102635.47;2612441;36;20041;-51
2022/10/03 05:07:52;;;;;;;6.28;3.05;;;;;;;8.58;100.00;102634.50;2615451;36;20042;-53
2022/10/03 05:10:46;;;;;;;9.80;3.50;;;;;;;8.54;100.00;102638.31;2613213;36;20022;-56
2022/10/03 05:13:20;;;;;;;7.55;3.13;;;;;;;8.48;100.00;102630.56;2612112;36;20039;-54
2022/10/03 05:16:01;;;;;;;6.20;3.60;;;;;;;8.42;100.00;102629.03;2614650;36;20045;-55
2022/10/03 05:18:39;;;;;;;7.40;3.50;;;;;;;8.46;100.00;102632.47;2613947;36;20042;-55
2022/10/03 05:21:14;;;;;;;6.85;3.70;;;;;;;8.41;100.00;102627.31;2614602;36;20038;-56
2022/10/03 05:24:01;;;;;;;11.25;3.30;;;;;;;8.47;100.00;102631.53;2614372;36;20054;-53
2022/10/03 05:26:42;;;;;;;5.82;3.40;;;;;;;8.52;100.00;102629.47;2615117;36;20027;-52
2022/10/03 05:29:20;;;;;;;8.80;3.35;;;;;;;8.46;100.00;102637.84;2613642;36;20040;-52
2022/10/03 05:32:00;;;;;;;7.70;3.00;;;;;;;8.50;100.00;102628.69;2613120;36;20550;-54
2022/10/03 05:34:44;;;;;;;5.00;2.78;;;;;;;8.48;100.00;102631.47;2615395;36;20523;-51
2022/10/03 05:37:33;;;;;;;4.72;3.05;;;;;;;8.41;100.00;102633.53;2614963;36;20411;-56
2022/10/03 05:40:05;;;;;;;8.20;3.33;;;;;;;8.42;100.00;102635.28;2614628;36;20451;-56
2022/10/03 05:42:44;;;;;;;10.38;3.08;;;;;;;8.37;100.00;102637.31;2615063;36;20061;-52
2022/10/03 05:45:29;;;;;;;9.95;3.15;;;;;;;8.34;100.00;102634.78;2615256;36;20045;-54
2022/10/03 05:48:12;;;;;;;8.82;3.17;;;;;;;8.40;100.00;102639.84;2615109;36;20412;-51
2022/10/03 05:51:01;;;;;;;7.47;3.03;;;;;;;8.37;100.00;102633.78;2615580;36;20046;-55
2022/10/03 05:54:05;;;;;;;7.38;3.08;;;;;;;8.40;100.00;102644.34;2614500;36;20042;-56
2022/10/03 05:56:54;;;;;;;8.05;2.80;;;;;;;8.45;100.00;102646.81;2614399;36;20061;-56
2022/10/03 05:59:36;;;;;;;;;;;;;;;8.47;100.00;102644.97;2615149;36;20311;-52
2022/10/03 06:02:38;;;;;;;7.03;2.67;;;;;;;8.40;100.00;102645.22;2614357;36;19946;-56
2022/10/03 06:05:31;;;;;;;9.27;3.25;;;;;;;8.37;100.00;102645.38;2611515;36;20041;-54
2022/10/03 06:08:21;;;;;;;8.18;3.08;;;;;;;8.50;100.00;102656.38;2613952;31;20191;-56
2022/10/03 06:10:54;;;;;;;7.55;3.47;;;;;;;8.59;100.00;102660.41;2612602;36;20022;-53
2022/10/03 06:13:35;;;;;;;12.57;4.28;;;;;;;8.69;100.00;102664.38;2615484;36;20532;-52
2022/10/03 06:16:21;;;;;;;7.35;3.17;;;;;;;8.62;100.00;102654.03;2615675;36;20455;-54
2022/10/03 06:19:18;;;;;;;7.50;2.75;;;;;;;8.66;100.00;102661.84;2610406;36;20109;-52
2022/10/03 06:22:23;;;;;;;7.93;3.30;;;;;;;8.60;100.00;102664.84;2611761;36;20030;-53
2022/10/03 06:25:32;;;;;;;9.10;3.70;;;;;;;8.63;100.00;102659.31;2615496;36;20026;-55
2022/10/03 06:28:28;;;;;;;8.52;3.90;;;;;;;8.83;100.00;102669.00;2615402;36;20039;-52
2022/10/03 06:31:30;;;;;;;8.25;3.65;;;;;;;9.02;100.00;102657.31;2614919;36;20042;-57
2022/10/03 06:34:37;;;;;;;9.23;3.65;;;;;;;9.26;100.00;102666.72;2611770;36;20493;-54
2022/10/03 06:37:34;;;;;;;10.15;3.63;;;;;;;9.21;100.00;102665.25;2609923;36;20034;-53
2022/10/03 06:40:42;;;;;;;7.63;3.38;;;;;;;9.25;100.00;102666.81;2614085;31;20536;-55
2022/10/03 06:43:55;;;;;;;6.97;3.60;;;;;;;9.35;100.00;102669.84;2606081;31;20038;-55
2022/10/03 06:47:00;;;;;;;8.55;4.07;;;;;;;9.34;100.00;102669.00;2610091;31;20046;-53
2022/10/03 06:50:01;;;;;;;7.90;3.78;;;;;;;9.51;100.00;102669.88;2612828;36;20034;-53
2022/10/03 06:53:02;;;;;;;14.13;4.25;;;;;;;9.64;100.00;102673.63;2612003;31;20033;-53
2022/10/03 06:56:03;;;;;;;11.68;4.50;;;;;;;9.77;100.00;102681.88;2609818;36;20027;-57
2022/10/03 06:59:00;;;;;;;11.38;4.38;;;;;;;9.93;100.00;102672.00;2609554;36;20598;-55
2022/10/03 07:01:59;;;;;;;9.10;4.00;;;;;;;10.14;100.00;102680.69;2610782;36;20030;-51
2022/10/03 07:05:03;;;;;;;9.30;4.07;;;;;;;10.37;100.00;102678.50;2608584;36;20524;-55
2022/10/03 07:08:02;;;;;;;10.93;4.15;;;;;;;10.67;100.00;102677.63;2613676;36;20038;-54
2022/10/03 07:10:46;;;;;;;11.77;3.87;;;;;;;10.87;100.00;102676.44;2613039;36;20041;-57
2022/10/03 07:13:53;;;;;;;11.82;4.22;;;;;;;11.14;100.00;102679.25;2614523;54;20041;-55
2022/10/03 07:16:49;;;;;;;9.88;3.90;;;;;;;11.42;100.00;102687.44;2614654;36;20034;-57
2022/10/03 07:19:35;;;;;;;8.80;4.65;;;;;;;11.42;100.00;102682.91;2613225;36;20071;-57
2022/10/03 07:22:42;;;;;;;10.27;4.00;;;;;;;11.51;100.00;102674.25;2614878;36;20487;-56
2022/10/03 07:25:33;;;;;;;12.02;4.72;;;;;;;11.72;100.00;102687.34;2613999;36;20030;-57
2022/10/03 07:28:29;;;;;;;7.60;4.05;;;;;;;11.79;100.00;102685.94;2613251;36;20045;-55
2022/10/03 07:31:08;;;;;;;9.02;3.75;;;;;;;11.97;100.00;102685.75;2613147;36;20046;-58
2022/10/03 07:34:14;;;;;;;10.13;3.85;;;;;;;12.06;100.00;102686.03;2613075;36;20062;-56
2022/10/03 07:40:01;;;;;;;10.27;4.85;;;;;;;12.11;100.00;102691.13;2615053;36;20041;-54
2022/10/03 07:42:46;;;;;;;8.23;4.03;;;;;;;12.19;100.00;102691.47;2614632;36;20034;-55
2022/10/03 07:45:39;;;;;;;9.90;4.13;;;;;;;12.27;100.00;102699.91;2600459;36;20035;-55
2022/10/03 07:48:35;;;;;;;12.00;4.30;;;;;;;12.47;100.00;102700.44;2614517;36;20038;-55
2022/10/03 07:51:16;;;;;;;9.65;4.47;;;;;;;12.32;100.00;102701.47;2615583;36;20023;-54
2022/10/03 07:54:16;;;;;;;7.57;4.10;;;;;;;12.39;100.00;102697.38;2614332;31;20049;-55
2022/10/03 07:57:18;;;;;;;9.52;3.72;;;;;;;12.52;100.00;102698.28;2613888;36;20038;-54
2022/10/03 08:00:11;;;;;;;12.27;3.67;;;;;;;12.51;100.00;102695.69;2613877;36;20550;-61
2022/10/03 08:03:19;;;;;;;8.63;4.00;;;;;;;12.65;100.00;102705.53;2613938;36;20046;-55
2022/10/03 08:05:59;;;;;;;11.80;4.63;;;;;;;12.68;100.00;102708.06;2615050;36;20026;-54
2022/10/03 08:08:53;;;;;;;7.20;3.78;;;;;;;12.78;100.00;102706.47;2615440;31;20023;-58
2022/10/03 08:11:54;;;;;;;14.93;3.92;;;;;;;13.01;100.00;102709.41;2614469;31;20423;-58
2022/10/03 08:14:34;;;;;;;12.38;3.80;;;;;;;13.06;100.00;102701.81;2612605;36;20045;-61
2022/10/03 08:17:30;;;;;;;12.20;3.63;;;;;;;13.06;100.00;102701.81;2615517;36;20475;-56
2022/10/03 08:20:18;;;;;;;10.07;4.13;;;;;;;13.25;100.00;102707.69;2614472;36;20520;-62
2022/10/03 08:23:05;;;;;;;11.20;3.65;;;;;;;13.42;100.00;102705.66;2614287;36;20451;-55
2022/10/03 08:25:52;;;;;;;9.50;3.78;;;;;;;13.59;100.00;102713.44;2615315;36;20042;-59
2022/10/03 08:28:49;;;;;;;5.75;2.85;;;;;;;13.93;100.00;102721.81;2612001;36;20030;-57
2022/10/03 08:31:40;;;;;;;9.18;3.30;;;;;;;14.18;100.00;102728.13;2613564;36;20035;-60
2022/10/03 08:34:30;;;;;;;5.32;2.58;;;;;;;14.32;100.00;102713.53;2614423;36;20027;-56
2022/10/03 08:37:11;;;;;;;;;;;;;;;14.47;100.00;102727.75;2616241;36;20038;-60
2022/10/03 08:39:59;;;;;;;9.00;2.75;;;;;;;14.60;100.00;102720.44;2612898;36;19977;-54
2022/10/03 08:42:50;;;;;;;8.20;2.70;;;;;;;14.69;100.00;102719.78;2616439;31;20039;-62
2022/10/03 08:46:12;;;;;;;8.23;2.70;;;;;;;14.89;100.00;102722.78;2608082;36;20536;-58
2022/10/03 08:49:03;;;;;;;10.07;2.88;;;;;;;14.88;100.00;102718.34;2616109;31;20045;-58
2022/10/03 08:51:58;;;;;;;9.07;2.90;;;;;;;15.11;100.00;102731.97;2607799;36;20062;-61
2022/10/03 08:54:52;;;;;;;8.48;2.30;;;;;;;15.11;100.00;102723.84;2614248;36;20115;-58
2022/10/03 08:57:39;;;;;;;5.32;2.10;;;;;;;15.43;100.00;102718.59;2614483;36;20045;-58
2022/10/03 09:00:17;;;;;;;7.82;2.40;;;;;;;15.58;100.00;102724.63;2614035;36;20034;-55
2022/10/03 09:03:19;;;;;;;6.95;2.25;;;;;;;15.55;100.00;102724.88;2613523;36;20027;-62
2022/10/03 09:06:23;;;;;;;7.75;2.42;;;;;;;15.96;100.00;102723.41;2613745;36;20023;-56
2022/10/03 09:09:19;;;;;;;6.70;2.15;;;;;;;15.95;100.00;102727.09;2615094;36;20039;-60
2022/10/03 09:12:09;;;;;;;6.57;2.17;;;;;;;16.38;100.00;102726.25;2615458;36;20046;-60
2022/10/03 09:15:02;;;;;;;6.75;3.65;;;;;;;16.61;100.00;102723.44;2615496;36;20056;-58
2022/10/03 09:18:00;;;;;;;6.50;1.63;;;;;;;16.53;100.00;102720.50;2615534;36;20022;-60
2022/10/03 09:21:09;;;;;;;10.70;1.95;;;;;;;16.63;100.00;102722.31;2614028;31;20054;-59
2022/10/03 09:24:12;;;;;;;4.68;1.30;;;;;;;16.91;100.00;102714.53;2615258;36;20042;-57
2022/10/03 09:27:13;;;;;;;8.10;1.50;;;;;;;17.02;100.00;102720.91;2614087;36;20031;-58
2022/10/03 09:30:28;;;;;;;5.72;1.38;;;;;;;17.01;100.00;102709.19;2614641;36;20035;-61
2022/10/03 09:33:23;;;;;;;5.18;1.20;;;;;;;17.08;100.00;102701.34;2613394;31;20170;-59
2022/10/03 09:36:10;;;;;;;5.57;1.35;;;;;;;17.44;100.00;102699.94;2614318;36;20045;-58
2022/10/03 09:39:00;;;;;;;9.05;1.45;;;;;;;17.47;100.00;102699.66;2614845;36;20624;-57
2022/10/03 09:41:56;;;;;;;7.95;1.40;;;;;;;17.42;100.00;102701.94;2613625;36;20577;-58
2022/10/03 09:44:46;;;;;;;2.95;0.93;;;;;;;17.10;100.00;102704.78;2612560;36;20038;-62
2022/10/03 09:47:38;;;;;;;5.40;1.30;;;;;;;17.21;100.00;102695.69;2615085;36;20034;-57
2022/10/03 09:50:53;;;;;;;4.50;1.42;;;;;;;17.53;100.00;102698.25;2614111;36;20034;-59
2022/10/03 09:54:15;;;;;;;4.22;0.90;;;;;;;17.64;100.00;102691.88;2606293;36;20034;-63
2022/10/03 09:57:19;;;;;;;4.30;1.05;;;;;;;17.88;100.00;102693.38;2612087;36;20409;-61
2022/10/03 10:00:04;;;;;;;4.47;1.30;;;;;;;17.77;100.00;102689.75;2606426;36;20038;-58
2022/10/03 10:03:05;;;;;;;3.10;1.20;;;;;;;18.01;100.00;102685.84;2613546;36;20038;-61
2022/10/03 10:06:08;;;;;;;4.22;1.33;;;;;;;18.00;100.00;102686.84;2613584;36;20543;-58
2022/10/03 10:09:02;;;;;;;3.88;1.02;;;;;;;18.30;100.00;102680.44;2613635;36;20070;-57
2022/10/03 10:11:54;;;;;;;3.95;1.02;;;;;;;17.80;100.00;102694.06;2613424;36;20130;-61
2022/10/03 10:14:31;;;;;;;3.47;1.10;;;;;;;17.68;100.00;102685.13;2614122;36;20038;-59
2022/10/03 10:17:47;;;;;;;4.05;1.08;;;;;;;17.65;100.00;102685.41;2613535;36;21224;-59
2022/10/03 10:20:38;;;;;;;6.05;1.20;;;;;;;17.93;100.00;102680.22;2614138;36;20050;-57
2022/10/03 10:23:31;;;;;;;6.50;1.40;;;;;;;17.85;100.00;102689.91;2613744;36;20605;-57
2022/10/03 10:26:35;;;;;;;3.35;1.02;;;;;;;17.68;100.00;102685.13;2613601;36;20045;-58
2022/10/03 10:29:19;;;;;;;6.32;1.20;;;;;;;17.94;100.00;102685.53;2612782;36;20042;-58
2022/10/03 10:32:16;;;;;;;4.22;1.00;;;;;;;18.00;100.00;102678.66;2610584;36;20535;-60
2022/10/03 10:35:14;;;;;;;6.40;1.20;;;;;;;18.09;100.00;102683.25;2615667;36;20413;-57
2022/10/03 10:38:24;;;;;;;5.20;1.45;;;;;;;18.10;100.00;102679.53;2614455;36;20544;-57
2022/10/03 10:41:21;;;;;;;6.55;1.17;;;;;;;18.43;100.00;102674.66;2615372;36;20053;-59
2022/10/03 10:44:25;;;;;;;2.58;1.00;;;;;;;18.06;100.00;102682.69;2614228;36;20030;-59
2022/10/03 10:47:41;;;;;;;2.28;1.10;;;;;;;18.39;100.00;102673.25;2614310;36;20042;-57
2022/10/03 10:50:38;;;;;;;4.43;1.17;;;;;;;18.63;100.00;102670.06;2615786;36;20420;-59
2022/10/03 10:53:38;;;;;;;4.55;1.20;;;;;;;18.83;100.00;102661.84;2614608;36;20026;-60
2022/10/03 10:56:43;;;;;;;3.67;1.17;;;;;;;18.85;100.00;102668.88;2615299;31;20559;-58
2022/10/03 10:59:41;;;;;;;2.95;1.25;;;;;;;18.89;100.00;102670.34;2606108;36;20034;-57
2022/10/03 11:02:51;;;;;;;5.93;1.50;;;;;;;18.77;100.00;102673.34;2609005;36;20443;-61
2022/10/03 11:06:00;;;;;;;6.20;1.10;;;;;;;19.16;100.00;102665.97;2612009;36;20034;-57
2022/10/03 11:08:56;;;;;;;5.95;1.30;;;;;;;19.17;100.00;102666.81;2613838;36;20042;-58
2022/10/03 11:11:56;;;;;;;7.60;1.50;;;;;;;19.69;100.00;102660.84;2615513;36;20031;-57
2022/10/03 11:15:18;;;;;;;3.88;1.15;;;;;;;19.91;100.00;102662.34;2612923;36;20042;-57
2022/10/03 11:18:15;;;;;;;5.47;1.30;;;;;;;19.45;100.00;102659.53;2615359;36;20023;-58
2022/10/03 11:21:19;;;;;;;5.05;1.15;;;;;;;19.03;100.00;102670.91;2615243;36;20045;-58
2022/10/03 11:24:33;;;;;;;2.00;1.00;;;;;;;18.88;100.00;102665.91;2614731;36;20542;-56
2022/10/03 11:27:24;;;;;;;4.57;1.17;;;;;;;19.21;100.00;102662.78;2615583;36;20061;-60
2022/10/03 11:30:28;;;;;;;6.97;1.50;;;;;;;19.35;100.00;102659.56;2614458;31;20395;-56
2022/10/03 11:33:44;;;;;;;4.22;1.25;;;;;;;19.23;100.00;102655.31;2614478;36;20041;-55
2022/10/03 11:36:45;;;;;;;5.22;1.40;;;;;;;19.35;100.00;102653.28;2614800;36;20023;-56
2022/10/03 11:39:23;;;;;;;6.65;1.20;;;;;;;19.06;100.00;102659.69;2614874;36;20029;-59
2022/10/03 11:42:03;;;;;;;2.35;1.20;;;;;;;18.99;100.00;102658.56;2615633;36;20427;-55
2022/10/03 11:44:39;;;;;;;4.47;0.98;;;;;;;18.59;100.00;102656.88;2615477;36;20058;-56
2022/10/03 11:47:25;;;;;;;3.55;0.85;;;;;;;19.19;100.00;102660.22;2616107;31;20061;-61
2022/10/03 11:50:21;;;;;;;3.63;1.27;;;;;;;19.02;100.00;102666.44;2616332;36;20061;-52
2022/10/03 11:53:09;;;;;;;6.28;1.00;;;;;;;19.19;100.00;102662.09;2616396;36;20023;-60
2022/10/03 11:55:43;;;;;;;3.28;1.33;;;;;;;18.65;100.00;102664.47;2613335;54;20046;-52
2022/10/03 11:58:34;;;;;;;4.72;1.35;;;;;;;19.08;100.00;102665.88;2612878;31;20543;-55
2022/10/03 12:01:29;;;;;;;4.43;1.00;;;;;;;19.34;100.00;102662.47;2613422;36;20038;-53
2022/10/03 12:04:08;;;;;;;8.10;1.52;;;;;;;19.00;100.00;102665.75;2607000;36;20597;-55
2022/10/03 12:09:49;;;;;;;9.38;1.40;;;;;;;19.22;100.00;102657.19;2604665;36;20776;-55
2022/10/03 12:12:28;;;;;;;5.22;1.05;;;;;;;19.41;100.00;102652.66;2612941;36;20030;-52
2022/10/03 12:15:05;;;;;;;5.93;1.10;;;;;;;19.63;100.00;102656.00;2613455;31;20491;-54
2022/10/03 12:17:36;;;;;;;3.78;1.25;;;;;;;19.53;100.00;102656.91;2613213;36;20034;-58
2022/10/03 12:20:17;;;;;;;9.30;1.35;;;;;;;19.14;100.00;102657.09;2612568;36;20041;-56
2022/10/03 12:22:52;;;;;;;3.15;1.13;;;;;;;19.77;100.00;102655.47;2614146;36;20038;-51
2022/10/03 12:25:23;;;;;;;10.43;1.33;;;;;;;19.54;100.00;102646.84;2614541;36;20447;-53
2022/10/03 12:28:00;;;;;;;6.15;1.40;;;;;;;19.48;100.00;102648.31;2613651;36;20042;-55
2022/10/03 12:30:40;;;;;;;6.88;1.40;;;;;;;19.54;100.00;102642.25;2613802;36;20521;-50
2022/10/03 12:33:21;;;;;;;3.15;1.30;;;;;;;19.65;100.00;102643.06;2611303;31;20056;-56
2022/10/03 12:35:55;;;;;;;5.43;1.30;;;;;;;19.55;100.00;102638.50;2612296;36;20045;-56
2022/10/03 12:38:33;;;;;;;2.10;1.08;;;;;;;19.60;100.00;102647.09;2612992;36;20034;-51
2022/10/03 12:41:18;;;;;;;4.90;1.27;;;;;;;19.89;100.00;102632.44;2613273;36;20038;-52
2022/10/03 12:44:04;;;;;;;7.20;1.25;;;;;;;19.35;100.00;102626.81;2613590;36;20741;-54
2022/10/03 12:46:44;;;;;;;6.50;1.30;;;;;;;19.19;100.00;102619.25;2614789;36;20027;-55
2022/10/03 12:49:19;;;;;;;5.43;1.52;;;;;;;19.39;100.00;102627.34;2614808;36;20035;-60
2022/10/03 12:51:57;;;;;;;4.07;1.25;;;;;;;19.72;100.00;102625.88;2614624;36;20539;-52
2022/10/03 12:54:41;;;;;;;9.15;1.70;;;;;;;19.48;100.00;102620.13;2614198;36;20034;-54
2022/10/03 12:57:33;;;;;;;6.00;1.05;;;;;;;19.73;100.00;102624.03;2613310;36;20629;-60
2022/10/03 13:00:07;;;;;;;5.85;1.40;;;;;;;19.67;100.00;102625.50;2612365;36;20850;-56
2022/10/03 13:02:44;;;;;;;5.22;1.05;;;;;;;20.03;100.00;102621.97;2614208;31;20022;-57
2022/10/03 13:05:54;;;;;;;3.28;1.45;;;;;;;19.80;100.00;102625.13;2613867;36;20052;-55
2022/10/03 13:08:41;;;;;;;7.57;1.27;;;;;;;19.31;100.00;102619.09;2614907;31;20053;-60
2022/10/03 13:11:25;;;;;;;7.15;1.30;;;;;;;18.81;100.00;102622.97;2606073;36;20462;-52
2022/10/03 13:14:09;;;;;;;7.18;1.63;;;;;;;18.93;100.00;102619.06;2614899;31;20027;-62
2022/10/03 13:16:44;;;;;;;5.15;1.27;;;;;;;19.06;100.00;102626.94;2612398;36;20041;-54
2022/10/03 13:19:20;;;;;;;5.45;1.48;;;;;;;19.33;100.00;102622.50;2613504;36;20038;-55
2022/10/03 13:22:02;;;;;;;6.10;1.20;;;;;;;19.43;100.00;102623.31;2613691;36;20038;-61